createdAt,value
2018-08-03T00:01:42.122Z,15.43
2018-08-03T00:04:12.341Z,22.87
2018-08-03T00:06:42.298Z,14.80
2018-08-03T00:09:13.223Z,18.62
2018-08-03T00:11:42.582Z,18.95
2018-08-03T00:14:12.197Z,20.20
2018-08-03T00:16:42.381Z,16.32
2018-08-03T00:19:12.621Z,15.83
2018-08-03T00:21:41.998Z,17.30
2018-08-03T00:24:12.066Z,20.62
2018-08-03T00:26:42.205Z,15.35
2018-08-03T00:29:13.097Z,23.52
2018-08-03T00:31:42.729Z,17.50
2018-08-03T00:34:12.233Z,24.43
2018-08-03T00:36:41.709Z,14.28
2018-08-03T00:39:12.803Z,17.17
2018-08-03T00:41:42.946Z,18.15
2018-08-03T00:44:12.146Z,17.70
2018-08-03T00:46:42.136Z,17.23
2018-08-03T00:49:12.201Z,14.75
2018-08-03T00:51:42.718Z,13.85
2018-08-03T00:54:12.299Z,16.87
2018-08-03T00:56:42.282Z,15.43
2018-08-03T00:59:12.124Z,17.67
2018-08-03T01:01:42.184Z,15.98
2018-08-03T01:04:12.109Z,16.15
2018-08-03T01:06:42.020Z,17.05
2018-08-03T01:09:13.125Z,16.30
2018-08-03T01:11:42.377Z,15.60
2018-08-03T01:14:12.287Z,22.27
2018-08-03T01:16:43.026Z,14.78
2018-08-03T01:19:14.301Z,16.42
2018-08-03T01:21:45.678Z,15.48
2018-08-03T01:24:15.807Z,16.55
2018-08-03T01:26:45.937Z,19.10
2018-08-03T01:29:16.175Z,20.80
2018-08-03T01:31:46.173Z,20.12
2018-08-03T01:34:16.238Z,18.67
2018-08-03T01:36:46.301Z,19.00
2018-08-03T01:39:16.668Z,23.98
2018-08-03T01:41:46.069Z,18.87
2018-08-03T01:44:15.982Z,19.55
2018-08-03T01:46:45.942Z,22.50
2018-08-03T01:49:15.786Z,19.15
2018-08-03T01:51:45.768Z,22.30
2018-08-03T01:54:15.654Z,18.98
2018-08-03T01:56:45.854Z,23.47
2018-08-03T01:59:16.043Z,23.52
2018-08-03T02:01:46.109Z,19.80
2018-08-03T02:04:16.258Z,19.30
2018-08-03T02:06:46.562Z,21.37
2018-08-03T02:09:16.724Z,19.30
2018-08-03T02:11:46.221Z,18.90
2018-08-03T02:14:16.292Z,19.70
2018-08-03T02:16:46.355Z,17.20
2018-08-03T02:19:15.738Z,17.92
2018-08-03T02:21:45.811Z,19.32
2018-08-03T02:24:15.704Z,18.82
2018-08-03T02:26:45.899Z,19.00
2018-08-03T02:29:15.777Z,18.42
2018-08-03T02:31:45.949Z,18.15
2018-08-03T02:34:16.083Z,19.52
2018-08-03T02:36:45.953Z,17.98
2018-08-03T02:39:15.958Z,18.62
2018-08-03T02:41:46.298Z,20.02
2018-08-03T02:44:16.454Z,15.83
2018-08-03T02:46:46.513Z,19.65
2018-08-03T02:49:16.771Z,18.12
2018-08-03T02:51:46.210Z,17.25
2018-08-03T02:54:16.105Z,19.25
2018-08-03T02:56:46.225Z,20.35
2018-08-03T02:59:16.098Z,18.90
2018-08-03T03:01:46.918Z,25.27
2018-08-03T03:04:16.316Z,18.37
2018-08-03T03:06:46.052Z,19.10
2018-08-03T03:09:15.919Z,18.75
2018-08-03T03:11:45.988Z,20.17
2018-08-03T03:14:15.905Z,18.70
2018-08-03T03:16:45.731Z,22.42
2018-08-03T03:19:15.748Z,17.87
2018-08-03T03:21:45.763Z,20.30
2018-08-03T03:24:16.015Z,18.55
2018-08-03T03:26:46.030Z,18.10
2018-08-03T03:29:16.013Z,18.98
2018-08-03T03:31:46.183Z,17.80
2018-08-03T03:34:16.088Z,21.95
2018-08-03T03:36:46.364Z,19.65
2018-08-03T03:39:15.820Z,20.72
2018-08-03T03:41:46.001Z,21.35
2018-08-03T03:44:16.097Z,20.55
2018-08-03T03:46:46.250Z,19.27
2018-08-03T03:49:16.306Z,18.73
2018-08-03T03:51:46.564Z,19.42
2018-08-03T03:54:16.985Z,17.45
2018-08-03T03:56:46.425Z,18.70
2018-08-03T03:59:16.592Z,18.42
2018-08-03T04:01:46.683Z,16.67
2018-08-03T04:04:16.065Z,20.23
2018-08-03T04:06:46.038Z,21.35
2018-08-03T04:09:16.100Z,23.77
2018-08-03T04:11:46.405Z,22.10
2018-08-03T04:14:16.797Z,20.92
2018-08-03T04:16:46.214Z,17.77
2018-08-03T04:19:16.261Z,20.62
2018-08-03T04:21:46.463Z,23.18
2018-08-03T04:24:16.519Z,22.95
2018-08-03T04:26:46.854Z,20.77
2018-08-03T04:29:16.968Z,18.45
2018-08-03T04:31:46.297Z,17.57
2018-08-03T04:34:16.626Z,20.50
2018-08-03T04:36:46.131Z,24.23
2018-08-03T04:39:16.274Z,22.22
2018-08-03T04:41:46.405Z,20.88
2018-08-03T04:44:16.573Z,21.30
2018-08-03T04:46:46.884Z,19.48
2018-08-03T04:49:16.275Z,25.60
2018-08-03T04:51:46.151Z,20.72
2018-08-03T04:54:16.338Z,20.12
2018-08-03T04:56:46.376Z,21.50
2018-08-03T04:59:16.344Z,20.95
2018-08-03T05:01:46.699Z,20.82
2018-08-03T05:04:16.209Z,23.02
2018-08-03T05:06:46.307Z,24.25
2018-08-03T05:09:16.620Z,23.40
2018-08-03T05:11:46.830Z,21.10
2018-08-03T05:14:16.133Z,20.35
2018-08-03T05:16:46.355Z,21.80
2018-08-03T05:19:16.730Z,19.07
2018-08-03T05:21:46.257Z,19.87
2018-08-03T05:24:16.358Z,21.48
2018-08-03T05:26:46.273Z,20.37
2018-08-03T05:29:15.978Z,21.57
2018-08-03T05:31:46.104Z,20.55
2018-08-03T05:34:16.110Z,25.45
2018-08-03T05:36:46.280Z,17.98
2018-08-03T05:39:16.325Z,16.73
2018-08-03T05:41:47.610Z,22.37
2018-08-03T05:44:18.394Z,22.07
2018-08-03T05:46:48.730Z,22.02
2018-08-03T05:49:18.404Z,18.90
2018-08-03T05:51:49.270Z,17.50
2018-08-03T05:54:18.886Z,16.55
2018-08-03T05:56:48.644Z,17.73
2018-08-03T05:59:19.449Z,18.17
2018-08-03T06:01:49.690Z,17.42
2018-08-03T06:04:19.691Z,25.00
2018-08-03T06:06:50.280Z,20.27
2018-08-03T06:09:20.558Z,18.95
2018-08-03T06:11:50.758Z,15.23
2018-08-03T06:14:20.139Z,17.90
2018-08-03T06:16:50.236Z,21.30
2018-08-03T06:19:20.136Z,23.67
2018-08-03T06:21:50.504Z,19.17
2018-08-03T06:24:20.368Z,18.87
2018-08-03T06:26:50.018Z,19.65
2018-08-03T06:29:20.425Z,17.65
2018-08-03T06:31:51.141Z,17.48
2018-08-03T06:34:21.115Z,20.25
2018-08-03T06:36:50.557Z,15.60
2018-08-03T06:39:20.009Z,21.62
2018-08-03T06:41:50.827Z,17.45
2018-08-03T06:44:20.487Z,17.70
2018-08-03T06:46:51.356Z,14.93
2018-08-03T06:49:21.764Z,14.50
2018-08-03T06:51:52.120Z,19.00
2018-08-03T06:54:22.816Z,15.70
2018-08-03T06:56:53.541Z,18.55
2018-08-03T06:59:24.265Z,15.55
2018-08-03T07:01:54.495Z,16.80
2018-08-03T07:04:24.506Z,21.25
2018-08-03T07:06:55.322Z,15.80
2018-08-03T07:09:25.299Z,22.07
2018-08-03T07:11:54.617Z,21.25
2018-08-03T07:14:25.299Z,22.32
2018-08-03T07:16:54.531Z,18.73
2018-08-03T07:19:25.084Z,18.27
2018-08-03T07:21:55.080Z,16.82
2018-08-03T07:24:25.291Z,16.67
2018-08-03T07:26:55.046Z,21.55
2018-08-03T07:29:24.293Z,20.82
2018-08-03T07:31:54.212Z,15.93
2018-08-03T07:34:24.178Z,18.92
2018-08-03T07:36:55.053Z,16.45
2018-08-03T07:39:24.745Z,17.55
2018-08-03T07:41:54.446Z,16.87
2018-08-03T07:44:25.190Z,17.25
2018-08-03T07:46:57.121Z,18.40
2018-08-03T07:49:27.052Z,21.17
2018-08-03T07:51:56.593Z,15.85
2018-08-03T07:54:27.359Z,17.37
2018-08-03T07:56:57.289Z,27.35
2018-08-03T07:59:27.059Z,17.55
2018-08-03T08:01:56.494Z,22.32
2018-08-03T08:04:27.363Z,16.30
2018-08-03T08:06:57.109Z,16.62
2018-08-03T08:09:26.808Z,17.15
2018-08-03T08:11:56.495Z,20.17
2018-08-03T08:14:27.291Z,16.95
2018-08-03T08:16:57.350Z,15.65
2018-08-03T08:19:27.046Z,15.30
2018-08-03T08:21:56.961Z,18.85
2018-08-03T08:24:26.961Z,15.03
2018-08-03T08:26:56.968Z,17.52
2018-08-03T08:29:26.881Z,24.20
2018-08-03T08:31:57.154Z,15.83
2018-08-03T08:34:26.542Z,17.37
2018-08-03T08:36:57.406Z,23.85
2018-08-03T08:39:27.427Z,36.88
2018-08-03T08:41:57.140Z,18.48
2018-08-03T08:44:26.891Z,16.57
2018-08-03T08:46:56.863Z,14.45
2018-08-03T08:49:26.880Z,14.85
2018-08-03T08:51:56.649Z,12.47
2018-08-03T08:54:26.991Z,15.23
2018-08-03T08:56:57.075Z,14.90
2018-08-03T08:59:26.777Z,16.35
2018-08-03T09:01:56.638Z,20.08
2018-08-03T09:04:27.039Z,20.48
2018-08-03T09:06:56.883Z,19.48
2018-08-03T09:09:26.775Z,16.57
2018-08-03T09:11:56.642Z,12.00
2018-08-03T09:14:26.980Z,16.90
2018-08-03T09:16:57.122Z,12.55
2018-08-03T09:19:28.601Z,15.10
2018-08-03T09:21:59.251Z,15.32
2018-08-03T09:24:29.292Z,13.10
2018-08-03T09:26:59.042Z,15.60
2018-08-03T09:29:28.648Z,14.85
2018-08-03T09:31:59.201Z,19.32
2018-08-03T09:34:29.280Z,15.38
2018-08-03T09:36:59.864Z,21.05
2018-08-03T09:39:30.344Z,15.38
2018-08-03T09:42:00.758Z,15.72
2018-08-03T09:44:30.884Z,19.77
2018-08-03T09:47:00.500Z,13.93
2018-08-03T09:49:31.315Z,10.45
2018-08-03T09:52:01.268Z,16.17
2018-08-03T09:54:31.064Z,11.80
2018-08-03T09:57:00.961Z,10.05
2018-08-03T09:59:31.303Z,12.28
2018-08-03T10:02:00.979Z,13.10
2018-08-03T10:04:30.732Z,9.85
2018-08-03T10:07:00.915Z,9.58
2018-08-03T10:09:30.732Z,19.65
2018-08-03T10:12:00.485Z,9.75
2018-08-03T10:14:30.828Z,9.00
2018-08-03T10:17:00.807Z,9.95
2018-08-03T10:19:30.722Z,11.43
2018-08-03T10:22:02.078Z,11.55
2018-08-03T10:24:32.431Z,10.18
2018-08-03T10:27:02.501Z,11.38
2018-08-03T10:29:33.289Z,13.38
2018-08-03T10:32:03.053Z,9.15
2018-08-03T10:34:32.977Z,9.88
2018-08-03T10:37:02.730Z,9.85
2018-08-03T10:39:32.493Z,13.18
2018-08-03T10:42:03.296Z,15.10
2018-08-03T10:44:33.289Z,10.38
2018-08-03T10:47:03.052Z,11.57
2018-08-03T10:49:32.775Z,11.35
2018-08-03T10:52:02.718Z,9.33
2018-08-03T10:54:32.806Z,9.43
2018-08-03T10:57:02.880Z,10.40
2018-08-03T10:59:32.961Z,15.25
2018-08-03T11:02:03.039Z,10.78
2018-08-03T11:04:32.799Z,8.00
2018-08-03T11:07:02.558Z,8.63
2018-08-03T11:09:33.223Z,9.70
2018-08-03T11:12:03.072Z,9.70
2018-08-03T11:14:33.122Z,7.67
2018-08-03T11:17:02.881Z,10.88
2018-08-03T11:19:32.813Z,7.33
2018-08-03T11:22:02.722Z,11.22
2018-08-03T11:24:32.538Z,11.57
2018-08-03T11:27:03.521Z,10.18
2018-08-03T11:29:33.909Z,11.68
2018-08-03T11:32:04.641Z,9.08
2018-08-03T11:34:35.300Z,7.80
2018-08-03T11:37:04.648Z,7.72
2018-08-03T11:39:35.799Z,14.28
2018-08-03T11:42:06.242Z,9.20
2018-08-03T11:44:36.911Z,12.45
2018-08-03T11:47:06.723Z,15.38
2018-08-03T11:49:37.401Z,10.20
2018-08-03T11:52:07.589Z,12.40
2018-08-03T11:54:38.240Z,17.35
2018-08-03T11:57:09.217Z,32.55
2018-08-03T11:59:39.363Z,19.40
2018-08-03T12:02:09.399Z,13.35
2018-08-03T12:04:39.045Z,19.52
2018-08-03T12:07:08.872Z,13.55
2018-08-03T12:09:38.729Z,11.45
2018-08-03T12:12:10.088Z,14.33
2018-08-03T12:14:41.202Z,10.00
2018-08-03T12:17:11.204Z,12.55
2018-08-03T12:19:41.221Z,10.38
2018-08-03T12:22:11.360Z,12.43
2018-08-03T12:24:41.444Z,79.47
2018-08-03T12:27:12.007Z,24.65
2018-08-03T12:29:42.857Z,16.42
2018-08-03T12:32:12.523Z,9.53
2018-08-03T12:34:43.742Z,9.83
2018-08-03T12:37:14.403Z,9.93
2018-08-03T12:39:45.061Z,21.15
2018-08-03T12:42:15.030Z,22.40
2018-08-03T12:44:44.959Z,9.70
2018-08-03T12:47:14.526Z,17.02
2018-08-03T12:49:44.354Z,9.45
2018-08-03T12:52:14.823Z,10.80
2018-08-03T12:54:44.496Z,10.05
2018-08-03T12:57:14.987Z,13.00
2018-08-03T12:59:44.777Z,36.50
2018-08-03T13:02:14.303Z,7.83
2018-08-03T13:04:44.577Z,12.37
2018-08-03T13:07:14.484Z,7.12
2018-08-03T13:09:44.801Z,7.83
2018-08-03T13:12:14.732Z,10.53
2018-08-03T13:14:45.612Z,9.70
2018-08-03T13:17:16.001Z,8.93
2018-08-03T13:19:46.347Z,8.08
2018-08-03T13:22:23.188Z,7.92
2018-08-03T13:24:53.598Z,8.73
2018-08-03T13:27:23.292Z,11.48
2018-08-03T13:29:53.049Z,10.13
2018-08-03T13:32:22.730Z,7.33
2018-08-03T13:34:53.923Z,7.42
2018-08-03T13:37:24.003Z,7.15
2018-08-03T13:39:54.980Z,9.80
2018-08-03T13:42:24.644Z,10.20
2018-08-03T13:44:55.130Z,7.50
2018-08-03T13:47:25.138Z,17.70
2018-08-03T13:49:54.880Z,9.20
2018-08-03T13:52:24.531Z,10.82
2018-08-03T13:54:55.134Z,8.88
2018-08-03T13:57:24.478Z,13.88
2018-08-03T13:59:55.294Z,9.95
2018-08-03T14:02:27.290Z,10.72
2018-08-03T14:04:57.280Z,8.35
2018-08-03T14:07:28.003Z,8.83
2018-08-03T14:09:58.549Z,15.00
2018-08-03T14:12:29.217Z,10.25
2018-08-03T14:14:58.558Z,13.43
2018-08-03T14:17:29.050Z,8.53
2018-08-03T14:19:59.047Z,13.22
2018-08-03T14:22:28.805Z,8.23
2018-08-03T14:24:59.376Z,7.47
2018-08-03T14:27:29.285Z,7.60
2018-08-03T14:29:58.737Z,7.37
2018-08-03T14:32:29.217Z,13.28
2018-08-03T14:34:58.566Z,10.08
2018-08-03T14:37:28.730Z,6.87
2018-08-03T14:39:59.486Z,8.00
2018-08-03T14:42:29.115Z,9.23
2018-08-03T14:44:58.879Z,7.80
2018-08-03T14:47:28.667Z,12.45
2018-08-03T14:49:59.134Z,15.23
2018-08-03T14:52:28.608Z,7.67
2018-08-03T14:54:58.972Z,7.60
2018-08-03T14:57:28.645Z,9.60
2018-08-03T14:59:59.452Z,23.50
2018-08-03T15:02:29.121Z,9.75
2018-08-03T15:04:58.570Z,11.48
2018-08-03T15:07:29.144Z,7.90
2018-08-03T15:09:59.039Z,8.15
2018-08-03T15:12:28.798Z,12.43
2018-08-03T15:14:58.441Z,36.15
2018-08-03T15:17:28.725Z,8.45
2018-08-03T15:19:59.132Z,7.83
2018-08-03T15:22:28.482Z,10.10
2018-08-03T15:24:58.969Z,10.55
2018-08-03T15:27:28.768Z,7.28
2018-08-03T15:29:59.454Z,8.03
2018-08-03T15:32:29.800Z,7.40
2018-08-03T15:34:59.990Z,10.82
2018-08-03T15:37:30.654Z,11.38
2018-08-03T15:40:01.691Z,15.93
2018-08-03T15:42:31.361Z,11.03
2018-08-03T15:45:01.339Z,12.75
2018-08-03T15:47:31.205Z,10.18
2018-08-03T15:50:00.696Z,8.90
2018-08-03T15:52:31.130Z,7.90
2018-08-03T15:55:01.121Z,32.00
2018-08-03T15:57:30.975Z,12.40
2018-08-03T16:00:00.798Z,8.08
2018-08-03T16:02:31.450Z,7.80
2018-08-03T16:05:01.439Z,7.87
2018-08-03T16:07:31.205Z,7.58
2018-08-03T16:10:00.970Z,10.28
2018-08-03T16:12:30.460Z,19.73
2018-08-03T16:15:01.270Z,8.13
2018-08-03T16:17:30.880Z,17.20
2018-08-03T16:20:00.649Z,9.53
2018-08-03T16:22:30.399Z,9.28
2018-08-03T16:25:01.209Z,33.83
2018-08-03T16:27:30.881Z,11.45
2018-08-03T16:30:00.358Z,8.48
2018-08-03T16:32:31.236Z,16.73
2018-08-03T16:35:01.119Z,20.25
2018-08-03T16:37:30.561Z,9.78
2018-08-03T16:40:00.190Z,9.80
2018-08-03T16:42:31.132Z,13.60
2018-08-03T16:45:01.149Z,12.58
2018-08-03T16:47:30.901Z,43.92
2018-08-03T16:50:00.642Z,18.50
2018-08-03T16:52:30.515Z,28.40
2018-08-03T16:55:01.041Z,33.25
2018-08-03T16:57:30.889Z,106.12
2018-08-03T17:00:00.705Z,64.92
2018-08-03T17:02:29.862Z,170.60
2018-08-03T17:05:00.216Z,39.53
2018-08-03T17:07:31.035Z,100.78
2018-08-03T17:10:00.640Z,176.20
2018-08-03T17:12:31.602Z,202.75
2018-08-03T17:15:02.564Z,57.13
2018-08-03T17:17:32.797Z,34.53
2018-08-03T17:20:03.934Z,12.00
2018-08-03T17:22:34.657Z,20.52
2018-08-03T17:25:04.662Z,28.45
2018-08-03T17:27:35.193Z,52.75
2018-08-03T17:30:05.127Z,31.15
2018-08-03T17:32:35.841Z,32.85
2018-08-03T17:35:06.968Z,26.25
2018-08-03T17:37:36.641Z,12.18
2018-08-03T17:40:07.150Z,15.75
2018-08-03T17:42:37.197Z,18.57
2018-08-03T17:45:06.877Z,14.58
2018-08-03T17:47:36.960Z,16.32
2018-08-03T17:50:06.717Z,19.05
2018-08-03T17:52:37.532Z,32.23
2018-08-03T17:55:07.523Z,74.03
2018-08-03T17:57:37.124Z,25.68
2018-08-03T18:00:07.368Z,95.47
2018-08-03T18:02:36.955Z,47.45
2018-08-03T18:05:06.881Z,12.85
2018-08-03T18:07:36.438Z,97.97
2018-08-03T18:10:07.610Z,43.73
2018-08-03T18:12:38.555Z,23.85
2018-08-03T18:15:10.200Z,25.97
2018-08-03T18:17:41.210Z,116.17
2018-08-03T18:20:10.564Z,66.97
2018-08-03T18:22:40.386Z,125.07
2018-08-03T18:25:10.089Z,158.82
2018-08-03T18:27:40.895Z,82.12
2018-08-03T18:30:10.299Z,52.62
2018-08-03T18:32:40.732Z,30.65
2018-08-03T18:35:11.449Z,54.27
2018-08-03T18:37:41.129Z,55.88
2018-08-03T18:40:12.249Z,24.32
2018-08-03T18:42:42.294Z,28.65
2018-08-03T18:45:13.058Z,12.82
2018-08-03T18:47:42.721Z,18.32
2018-08-03T18:50:12.475Z,16.87
2018-08-03T18:52:42.240Z,20.75
2018-08-03T18:55:12.734Z,21.55
2018-08-03T18:57:43.836Z,28.90
2018-08-03T19:00:14.635Z,17.30
2018-08-03T19:02:45.529Z,28.85
2018-08-03T19:05:15.526Z,18.30
2018-08-03T19:07:45.145Z,19.85
2018-08-03T19:10:15.042Z,13.15
2018-08-03T19:12:44.801Z,25.27
2018-08-03T19:15:15.609Z,21.45
2018-08-03T19:17:45.264Z,14.33
2018-08-03T19:20:15.416Z,22.10
2018-08-03T19:22:45.126Z,21.30
2018-08-03T19:25:14.881Z,17.45
2018-08-03T19:27:44.725Z,12.23
2018-08-03T19:30:15.130Z,18.87
2018-08-03T19:32:45.127Z,63.98
2018-08-03T19:35:14.885Z,61.70
2018-08-03T19:37:44.842Z,22.45
2018-08-03T19:40:14.720Z,16.48
2018-08-03T19:42:45.530Z,16.15
2018-08-03T19:45:15.391Z,16.12
2018-08-03T19:47:45.076Z,17.55
2018-08-03T19:50:15.045Z,16.73
2018-08-03T19:52:44.705Z,13.43
2018-08-03T19:55:16.083Z,17.35
2018-08-03T19:57:46.998Z,17.77
2018-08-03T20:00:16.967Z,21.40
2018-08-03T20:02:46.720Z,17.77
2018-08-03T20:05:16.488Z,12.13
2018-08-03T20:07:47.669Z,16.65
2018-08-03T20:10:18.010Z,15.53
2018-08-03T20:12:48.791Z,18.25
2018-08-03T20:15:19.513Z,65.28
2018-08-03T20:17:49.445Z,23.92
2018-08-03T20:20:19.206Z,26.27
2018-08-03T20:22:48.705Z,17.87
2018-08-03T20:25:18.225Z,48.20
2018-08-03T20:27:48.898Z,29.10
2018-08-03T20:30:18.984Z,19.45
2018-08-03T20:32:48.640Z,29.55
2018-08-03T20:35:18.404Z,22.95
2018-08-03T20:37:49.214Z,15.08
2018-08-03T20:40:18.565Z,15.98
2018-08-03T20:42:49.381Z,18.85
2018-08-03T20:45:19.207Z,19.57
2018-08-03T20:47:49.114Z,22.22
2018-08-03T20:50:18.881Z,23.18
2018-08-03T20:52:49.691Z,19.40
2018-08-03T20:55:20.444Z,16.52
2018-08-03T20:57:50.812Z,15.60
2018-08-03T21:00:21.211Z,14.78
2018-08-03T21:02:50.885Z,15.20
2018-08-03T21:05:20.961Z,15.80
2018-08-03T21:07:51.361Z,18.45
2018-08-03T21:10:20.809Z,16.00
2018-08-03T21:12:51.669Z,14.28
2018-08-03T21:15:22.016Z,21.25
2018-08-03T21:17:52.789Z,18.70
2018-08-03T21:20:23.585Z,14.85
2018-08-03T21:22:53.445Z,19.02
2018-08-03T21:25:23.206Z,18.87
2018-08-03T21:27:52.792Z,24.27
2018-08-03T21:30:23.454Z,18.23
2018-08-03T21:32:53.125Z,17.92
2018-08-03T21:35:22.790Z,16.52
2018-08-03T21:37:53.695Z,13.32
2018-08-03T21:40:24.090Z,17.40
2018-08-03T21:42:54.817Z,13.62
2018-08-03T21:45:25.209Z,15.98
2018-08-03T21:47:54.885Z,11.95
2018-08-03T21:50:26.749Z,14.45
2018-08-03T21:52:57.694Z,14.30
2018-08-03T21:55:28.105Z,14.93
2018-08-03T21:57:59.190Z,17.48
2018-08-03T22:00:29.049Z,16.57
2018-08-03T22:02:58.880Z,15.63
2018-08-03T22:05:29.756Z,12.78
2018-08-03T22:08:00.725Z,12.90
2018-08-03T22:10:31.519Z,16.00
2018-08-03T22:13:01.118Z,11.93
2018-08-03T22:15:30.565Z,12.37
2018-08-03T22:18:01.050Z,15.28
2018-08-03T22:20:30.719Z,12.75
2018-08-03T22:23:01.529Z,14.73
2018-08-03T22:25:31.265Z,12.98
2018-08-03T22:28:00.955Z,16.67
2018-08-03T22:30:31.719Z,15.18
2018-08-03T22:33:02.848Z,15.32
2018-08-03T22:35:33.866Z,13.85
2018-08-03T22:38:04.570Z,15.48
2018-08-03T22:40:35.350Z,14.40
2018-08-03T22:43:05.285Z,13.75
2018-08-03T22:45:35.070Z,17.40
2018-08-03T22:48:04.860Z,14.65
2018-08-03T22:50:35.608Z,12.33
2018-08-03T22:53:05.429Z,15.45
2018-08-03T22:55:35.366Z,15.78
2018-08-03T22:58:04.804Z,14.50
2018-08-03T23:00:35.614Z,13.95
2018-08-03T23:03:05.639Z,16.20
2018-08-03T23:05:35.754Z,15.63
2018-08-03T23:08:06.857Z,15.65
2018-08-03T23:10:37.534Z,14.93
2018-08-03T23:13:07.199Z,13.32
2018-08-03T23:15:37.606Z,12.63
2018-08-03T23:18:07.039Z,13.80
2018-08-03T23:20:36.800Z,21.55
2018-08-03T23:23:07.618Z,15.72
2018-08-03T23:25:37.280Z,16.67
2018-08-03T23:28:06.720Z,18.77
2018-08-03T23:30:37.209Z,17.25
2018-08-03T23:33:07.264Z,16.65
2018-08-03T23:35:36.959Z,13.28
2018-08-03T23:38:06.724Z,15.50
2018-08-03T23:40:36.488Z,13.80
2018-08-03T23:43:06.558Z,14.07
2018-08-03T23:45:37.047Z,17.52
2018-08-03T23:48:06.489Z,16.05
2018-08-03T23:50:37.209Z,15.32
2018-08-03T23:53:06.883Z,14.35
2018-08-03T23:55:37.382Z,14.03
2018-08-03T23:58:07.354Z,15.13
